createdAt,value
2023-03-30T00:00:20.753Z,16.15
2023-03-30T00:02:49.549Z,22.45
2023-03-30T00:05:23.871Z,15.63
2023-03-30T00:07:50.965Z,22.80
2023-03-30T00:10:18.965Z,17.15
2023-03-30T00:12:47.366Z,19.83
2023-03-30T00:15:16.566Z,16.60
2023-03-30T00:17:44.422Z,19.67
2023-03-30T00:20:13.008Z,14.73
2023-03-30T00:22:40.621Z,21.58
2023-03-30T00:25:09.645Z,23.38
2023-03-30T00:27:37.455Z,10.90
2023-03-30T00:30:05.915Z,11.95
2023-03-30T00:32:34.287Z,14.52
2023-03-30T00:35:01.472Z,16.88
2023-03-30T00:37:29.694Z,24.40
2023-03-30T00:39:56.709Z,19.45
2023-03-30T00:42:23.468Z,18.55
2023-03-30T00:45:27.739Z,17.77
2023-03-30T00:48:01.985Z,17.20
2023-03-30T00:51:02.370Z,15.90
2023-03-30T00:53:35.711Z,15.82
2023-03-30T00:56:03.658Z,19.70
2023-03-30T00:58:31.324Z,14.10
2023-03-30T01:01:00.577Z,15.73
2023-03-30T01:03:33.583Z,16.92
2023-03-30T01:06:02.236Z,18.35
2023-03-30T01:08:35.202Z,18.88
2023-03-30T01:11:03.052Z,17.23
2023-03-30T01:13:32.181Z,15.00
2023-03-30T01:16:07.804Z,17.05
2023-03-30T01:18:55.162Z,16.48
2023-03-30T01:21:35.271Z,15.13
2023-03-30T01:25:05.208Z,16.52
2023-03-30T01:28:00.837Z,18.33
2023-03-30T01:30:52.192Z,14.38
2023-03-30T01:33:45.877Z,16.23
2023-03-30T01:36:41.754Z,23.50
2023-03-30T01:39:40.212Z,17.30
2023-03-30T01:42:28.815Z,22.40
2023-03-30T01:45:40.939Z,15.07
2023-03-30T01:48:13.880Z,18.33
2023-03-30T01:50:43.166Z,18.30
2023-03-30T01:53:18.811Z,17.40
2023-03-30T01:55:49.918Z,24.23
2023-03-30T01:58:23.270Z,20.05
2023-03-30T02:00:51.074Z,16.15
2023-03-30T02:03:22.545Z,17.60
2023-03-30T02:05:52.309Z,17.00
2023-03-30T02:08:22.453Z,24.23
2023-03-30T02:10:49.338Z,17.38
2023-03-30T02:13:16.558Z,12.88
2023-03-30T02:15:46.542Z,15.90
2023-03-30T02:18:13.209Z,16.83
2023-03-30T02:20:39.980Z,17.27
2023-03-30T02:23:07.304Z,19.70
2023-03-30T02:25:36.522Z,16.23
2023-03-30T02:28:03.864Z,21.38
2023-03-30T02:30:36.190Z,24.45
2023-03-30T02:33:03.281Z,26.88
2023-03-30T02:35:56.423Z,16.77
2023-03-30T02:38:43.890Z,26.42
2023-03-30T02:41:32.336Z,17.98
2023-03-30T02:44:22.103Z,13.85
2023-03-30T02:47:01.883Z,17.10
2023-03-30T02:50:09.975Z,19.50
2023-03-30T02:52:43.000Z,16.90
2023-03-30T02:55:11.634Z,11.43
2023-03-30T02:58:09.160Z,18.88
2023-03-30T03:00:49.516Z,17.33
2023-03-30T03:03:25.432Z,16.70
2023-03-30T03:05:55.969Z,14.18
2023-03-30T03:08:24.799Z,12.20
2023-03-30T03:10:51.839Z,19.95
2023-03-30T03:13:20.776Z,20.77
2023-03-30T03:15:49.466Z,18.63
2023-03-30T03:18:16.395Z,11.20
2023-03-30T03:20:43.177Z,18.23
2023-03-30T03:23:09.899Z,15.55
2023-03-30T03:25:36.947Z,12.98
2023-03-30T03:28:03.862Z,14.45
2023-03-30T03:30:30.572Z,16.95
2023-03-30T03:32:57.314Z,8.57
2023-03-30T03:35:24.179Z,13.93
2023-03-30T03:37:50.849Z,11.57
2023-03-30T03:40:17.566Z,17.85
2023-03-30T03:42:44.192Z,9.95
2023-03-30T03:45:11.337Z,22.17
2023-03-30T03:47:38.049Z,15.05
2023-03-30T03:50:09.264Z,12.60
2023-03-30T03:52:36.821Z,16.77
2023-03-30T03:55:04.971Z,15.10
2023-03-30T03:57:31.799Z,14.35
2023-03-30T03:59:59.788Z,14.20
2023-03-30T04:02:27.609Z,13.48
2023-03-30T04:04:54.726Z,16.00
2023-03-30T04:07:21.595Z,17.33
2023-03-30T04:09:48.398Z,12.05
2023-03-30T04:12:15.052Z,18.25
2023-03-30T04:14:41.753Z,16.55
2023-03-30T04:17:08.561Z,25.38
2023-03-30T04:19:36.031Z,19.58
2023-03-30T04:22:05.933Z,14.15
2023-03-30T04:24:35.420Z,14.45
2023-03-30T04:27:02.735Z,20.17
2023-03-30T04:29:29.716Z,18.02
2023-03-30T04:31:56.664Z,26.75
2023-03-30T04:34:23.402Z,16.23
2023-03-30T04:36:50.543Z,24.20
2023-03-30T04:39:18.314Z,18.55
2023-03-30T04:41:46.024Z,18.67
2023-03-30T04:44:12.810Z,16.83
2023-03-30T04:46:39.626Z,17.67
2023-03-30T04:49:06.355Z,16.35
2023-03-30T04:51:33.218Z,22.20
2023-03-30T04:53:59.981Z,18.63
2023-03-30T04:56:27.794Z,18.40
2023-03-30T04:58:54.698Z,17.48
2023-03-30T05:01:21.470Z,22.25
2023-03-30T05:03:48.278Z,21.88
2023-03-30T05:06:15.044Z,25.70
2023-03-30T05:08:41.968Z,32.70
2023-03-30T05:11:09.112Z,17.90
2023-03-30T05:13:35.845Z,14.20
2023-03-30T05:16:02.550Z,22.42
2023-03-30T05:18:29.212Z,16.48
2023-03-30T05:20:59.221Z,19.02
2023-03-30T05:23:26.175Z,18.67
2023-03-30T05:25:55.048Z,23.55
2023-03-30T05:28:22.906Z,21.85
2023-03-30T05:30:56.011Z,21.35
2023-03-30T05:33:22.841Z,19.63
2023-03-30T05:35:49.734Z,17.33
2023-03-30T05:38:16.623Z,18.83
2023-03-30T05:40:44.801Z,22.83
2023-03-30T05:43:11.635Z,16.17
2023-03-30T05:45:38.562Z,20.45
2023-03-30T05:48:06.814Z,18.08
2023-03-30T05:50:33.576Z,16.00
2023-03-30T05:53:00.390Z,21.42
2023-03-30T05:55:27.752Z,22.50
2023-03-30T05:57:54.600Z,23.00
2023-03-30T06:00:22.813Z,17.70
2023-03-30T06:02:49.731Z,21.02
2023-03-30T06:05:16.461Z,22.13
2023-03-30T06:07:43.535Z,37.13
2023-03-30T06:10:10.550Z,26.83
2023-03-30T06:12:39.369Z,12.85
2023-03-30T06:15:09.006Z,20.23
2023-03-30T06:17:36.793Z,23.35
2023-03-30T06:20:09.845Z,20.20
2023-03-30T06:22:36.759Z,20.15
2023-03-30T06:25:03.611Z,22.58
2023-03-30T06:27:33.060Z,24.02
2023-03-30T06:29:59.762Z,27.02
2023-03-30T06:32:27.052Z,24.05
2023-03-30T06:34:53.979Z,23.08
2023-03-30T06:37:21.100Z,22.95
2023-03-30T06:39:47.767Z,32.10
2023-03-30T06:42:14.443Z,25.25
2023-03-30T06:44:41.100Z,27.90
2023-03-30T06:47:08.041Z,24.50
2023-03-30T06:49:34.764Z,20.05
2023-03-30T06:52:04.003Z,22.77
2023-03-30T06:54:32.341Z,22.52
2023-03-30T06:56:59.081Z,17.90
2023-03-30T06:59:25.931Z,20.33
2023-03-30T07:01:52.931Z,26.35
2023-03-30T07:04:19.704Z,28.42
2023-03-30T07:06:46.437Z,15.85
2023-03-30T07:09:13.788Z,12.15
2023-03-30T07:11:40.447Z,12.38
2023-03-30T07:14:10.053Z,15.82
2023-03-30T07:16:36.904Z,15.50
2023-03-30T07:19:03.815Z,19.67
2023-03-30T07:21:30.580Z,6.53
2023-03-30T07:23:58.023Z,10.65
2023-03-30T07:26:24.682Z,8.90
2023-03-30T07:28:51.438Z,7.22
2023-03-30T07:31:20.142Z,7.88
2023-03-30T07:33:46.831Z,7.55
2023-03-30T07:36:13.599Z,8.57
2023-03-30T07:38:40.559Z,4.95
2023-03-30T07:41:12.506Z,6.05
2023-03-30T07:43:40.718Z,6.18
2023-03-30T07:46:08.363Z,6.30
2023-03-30T07:48:35.717Z,4.88
2023-03-30T07:51:06.986Z,7.50
2023-03-30T07:53:33.823Z,6.55
2023-03-30T07:56:00.674Z,8.75
2023-03-30T07:58:27.628Z,8.00
2023-03-30T08:00:54.750Z,5.72
2023-03-30T08:03:25.180Z,4.03
2023-03-30T08:05:54.016Z,2.85
2023-03-30T08:08:20.862Z,3.80
2023-03-30T08:10:47.679Z,6.15
2023-03-30T08:13:14.787Z,2.58
2023-03-30T08:15:41.723Z,3.25
2023-03-30T08:18:08.731Z,3.97
2023-03-30T08:20:37.535Z,3.40
2023-03-30T08:23:05.298Z,3.22
2023-03-30T08:25:32.872Z,3.35
2023-03-30T08:27:59.740Z,5.30
2023-03-30T08:30:27.206Z,6.03
2023-03-30T08:32:53.976Z,3.70
2023-03-30T08:35:21.857Z,4.68
2023-03-30T08:37:48.673Z,4.90
2023-03-30T08:40:18.637Z,3.38
2023-03-30T08:42:52.248Z,6.47
2023-03-30T08:45:19.062Z,3.88
2023-03-30T08:47:51.600Z,5.65
2023-03-30T08:50:30.653Z,7.18
2023-03-30T08:52:57.585Z,7.35
2023-03-30T08:55:32.950Z,6.32
2023-03-30T08:58:33.005Z,9.75
2023-03-30T09:01:19.060Z,7.40
2023-03-30T09:03:51.939Z,5.88
2023-03-30T09:06:23.997Z,5.65
2023-03-30T09:08:51.884Z,4.47
2023-03-30T09:11:33.492Z,5.78
2023-03-30T09:14:02.962Z,4.05
2023-03-30T09:16:47.257Z,7.30
2023-03-30T09:19:31.294Z,3.60
2023-03-30T09:21:59.451Z,9.27
2023-03-30T09:24:27.243Z,5.65
2023-03-30T09:27:17.000Z,7.22
2023-03-30T09:29:47.610Z,4.63
2023-03-30T09:32:40.783Z,7.43
2023-03-30T09:35:14.942Z,9.55
2023-03-30T09:37:41.922Z,9.75
2023-03-30T09:40:24.703Z,4.30
2023-03-30T09:42:58.304Z,5.35
2023-03-30T09:45:33.288Z,5.82
2023-03-30T09:48:05.938Z,5.35
2023-03-30T09:50:43.969Z,7.13
2023-03-30T09:53:29.295Z,5.97
2023-03-30T09:56:16.727Z,13.77
2023-03-30T09:58:43.396Z,7.75
2023-03-30T10:01:13.118Z,6.68
2023-03-30T10:03:41.974Z,6.57
2023-03-30T10:06:17.632Z,4.88
2023-03-30T10:08:50.534Z,6.07
2023-03-30T10:11:22.085Z,6.38
2023-03-30T10:13:50.609Z,4.60
2023-03-30T10:16:28.646Z,7.15
2023-03-30T10:19:03.247Z,5.63
2023-03-30T10:21:40.183Z,3.83
2023-03-30T10:24:22.795Z,8.48
2023-03-30T10:26:53.078Z,8.00
2023-03-30T10:29:22.892Z,11.40
2023-03-30T10:32:02.257Z,7.65
2023-03-30T10:34:44.155Z,10.15
2023-03-30T10:37:33.216Z,5.22
2023-03-30T10:40:02.802Z,8.27
2023-03-30T10:42:31.792Z,4.38
2023-03-30T10:45:00.956Z,8.82
2023-03-30T10:47:52.420Z,11.07
2023-03-30T10:50:35.965Z,7.85
2023-03-30T10:53:19.873Z,7.38
2023-03-30T10:56:14.440Z,6.70
2023-03-30T10:59:13.265Z,6.83
2023-03-30T11:01:49.057Z,7.97
2023-03-30T11:04:24.730Z,7.82
2023-03-30T11:06:53.574Z,4.85
2023-03-30T11:09:24.917Z,4.68
2023-03-30T11:11:52.621Z,4.68
2023-03-30T11:15:01.111Z,6.75
2023-03-30T11:17:36.262Z,7.13
2023-03-30T11:20:38.143Z,9.90
2023-03-30T11:23:38.700Z,7.85
2023-03-30T11:26:12.444Z,6.15
2023-03-30T11:28:51.854Z,8.18
2023-03-30T11:31:31.316Z,10.13
2023-03-30T11:34:22.634Z,9.40
2023-03-30T11:37:02.156Z,4.10
2023-03-30T11:39:33.300Z,10.73
2023-03-30T11:42:22.012Z,6.63
2023-03-30T11:44:48.748Z,7.32
2023-03-30T11:47:28.324Z,21.88
2023-03-30T11:50:21.218Z,5.75
2023-03-30T11:52:53.959Z,7.38
2023-03-30T11:55:51.209Z,6.78
2023-03-30T11:58:31.341Z,8.88
2023-03-30T12:01:22.959Z,8.63
2023-03-30T12:04:05.041Z,7.07
2023-03-30T12:06:38.751Z,4.55
2023-03-30T12:09:25.699Z,9.40
2023-03-30T12:11:55.410Z,5.97
2023-03-30T12:14:31.214Z,10.00
2023-03-30T12:17:26.749Z,7.93
2023-03-30T12:20:00.732Z,9.88
2023-03-30T12:22:36.855Z,6.13
2023-03-30T12:25:22.276Z,7.72
2023-03-30T12:27:58.722Z,8.60
2023-03-30T12:30:31.958Z,7.15
2023-03-30T12:33:03.850Z,5.03
2023-03-30T12:35:56.069Z,7.53
2023-03-30T12:38:29.835Z,5.18
2023-03-30T12:41:14.552Z,7.70
2023-03-30T12:46:41.886Z,9.77
2023-03-30T12:49:22.102Z,5.80
2023-03-30T12:51:52.375Z,5.78
2023-03-30T12:54:29.131Z,6.38
2023-03-30T12:57:26.172Z,8.68
2023-03-30T13:00:29.524Z,7.32
2023-03-30T13:03:25.818Z,6.80
2023-03-30T13:05:54.784Z,7.25
2023-03-30T13:08:31.300Z,6.65
2023-03-30T13:11:14.742Z,5.65
2023-03-30T13:13:55.163Z,6.45
2023-03-30T13:16:48.950Z,4.38
2023-03-30T13:19:27.935Z,4.18
2023-03-30T13:22:13.068Z,6.82
2023-03-30T13:24:43.385Z,3.63
2023-03-30T13:27:14.433Z,3.70
2023-03-30T13:29:42.006Z,4.38
2023-03-30T13:32:27.405Z,5.88
2023-03-30T13:35:09.284Z,5.28
2023-03-30T13:37:47.871Z,6.57
2023-03-30T13:40:38.615Z,8.07
2023-03-30T13:43:34.341Z,5.10
2023-03-30T13:46:26.157Z,7.05
2023-03-30T13:49:22.637Z,5.82
2023-03-30T13:51:49.433Z,5.45
2023-03-30T13:54:27.309Z,4.15
2023-03-30T13:57:04.413Z,11.43
2023-03-30T13:59:32.973Z,4.80
2023-03-30T14:02:01.353Z,5.88
2023-03-30T14:04:33.335Z,7.95
2023-03-30T14:07:10.174Z,4.72
2023-03-30T14:09:36.835Z,9.10
2023-03-30T14:12:04.966Z,8.13
2023-03-30T14:14:45.358Z,5.72
2023-03-30T14:17:19.236Z,5.65
2023-03-30T14:19:52.211Z,6.57
2023-03-30T14:22:21.924Z,6.80
2023-03-30T14:25:02.771Z,4.00
2023-03-30T14:27:38.271Z,5.72
2023-03-30T14:30:20.147Z,3.38
2023-03-30T14:32:46.961Z,2.85
2023-03-30T14:35:20.947Z,4.15
2023-03-30T14:37:52.201Z,5.20
2023-03-30T14:40:20.535Z,5.25
2023-03-30T14:42:47.408Z,7.65
2023-03-30T14:45:18.036Z,6.82
2023-03-30T14:47:46.668Z,4.18
2023-03-30T14:50:15.171Z,7.07
2023-03-30T14:52:44.366Z,5.40
2023-03-30T14:55:17.590Z,6.25
2023-03-30T14:57:46.656Z,5.03
2023-03-30T15:00:17.034Z,9.60
2023-03-30T15:02:44.440Z,7.20
2023-03-30T15:05:11.467Z,9.70
2023-03-30T15:07:38.219Z,7.05
2023-03-30T15:10:05.198Z,7.35
2023-03-30T15:12:37.092Z,7.70
2023-03-30T15:15:06.384Z,8.02
2023-03-30T15:17:33.697Z,7.38
2023-03-30T15:20:01.433Z,7.20
2023-03-30T15:22:33.108Z,5.65
2023-03-30T15:25:03.801Z,7.05
2023-03-30T15:27:30.714Z,4.95
2023-03-30T15:30:01.140Z,7.32
2023-03-30T15:32:36.130Z,4.57
2023-03-30T15:35:14.831Z,9.82
2023-03-30T15:38:10.781Z,3.45
2023-03-30T15:40:40.087Z,4.90
2023-03-30T15:43:19.571Z,2.60
2023-03-30T15:45:55.348Z,3.20
2023-03-30T15:48:36.181Z,6.05
2023-03-30T15:51:07.920Z,3.95
2023-03-30T15:53:39.881Z,4.78
2023-03-30T15:56:12.559Z,2.10
2023-03-30T15:58:39.694Z,5.63
2023-03-30T16:01:08.788Z,3.80
2023-03-30T16:03:42.074Z,2.63
2023-03-30T16:06:12.970Z,6.80
2023-03-30T16:08:43.447Z,4.45
2023-03-30T16:11:10.908Z,5.63
2023-03-30T16:13:46.546Z,4.20
2023-03-30T16:16:14.284Z,4.50
2023-03-30T16:18:42.718Z,4.07
2023-03-30T16:21:10.940Z,4.15
2023-03-30T16:23:38.149Z,3.08
2023-03-30T16:26:05.964Z,4.30
2023-03-30T16:28:32.855Z,5.03
2023-03-30T16:31:03.816Z,6.47
2023-03-30T16:33:30.644Z,4.45
2023-03-30T16:35:57.463Z,2.60
2023-03-30T16:38:24.130Z,5.45
2023-03-30T16:40:52.788Z,5.50
2023-03-30T16:43:19.435Z,7.53
2023-03-30T16:45:46.185Z,4.90
2023-03-30T16:48:15.066Z,5.70
2023-03-30T16:50:44.343Z,4.72
2023-03-30T16:53:11.497Z,4.40
2023-03-30T16:55:39.003Z,4.10
2023-03-30T16:58:07.484Z,5.30
2023-03-30T17:00:42.915Z,5.57
2023-03-30T17:03:09.883Z,9.07
2023-03-30T17:05:37.105Z,4.10
2023-03-30T17:08:24.865Z,8.82
2023-03-30T17:10:53.709Z,6.53
2023-03-30T17:13:20.981Z,5.57
2023-03-30T17:15:47.694Z,7.68
2023-03-30T17:18:20.378Z,8.30
2023-03-30T17:20:55.316Z,9.15
2023-03-30T17:23:23.725Z,8.55
2023-03-30T17:25:51.342Z,4.00
2023-03-30T17:28:26.208Z,7.10
2023-03-30T17:30:55.642Z,5.55
2023-03-30T17:33:22.716Z,6.40
2023-03-30T17:35:55.091Z,5.13
2023-03-30T17:38:22.568Z,10.52
2023-03-30T17:40:49.882Z,6.60
2023-03-30T17:43:16.772Z,7.60
2023-03-30T17:45:43.804Z,4.55
2023-03-30T17:48:17.485Z,9.10
2023-03-30T17:50:46.683Z,8.93
2023-03-30T17:53:17.315Z,6.97
2023-03-30T17:55:46.207Z,6.50
2023-03-30T17:58:23.187Z,6.07
2023-03-30T18:00:50.969Z,4.20
2023-03-30T18:03:20.487Z,4.88
2023-03-30T18:05:48.419Z,3.28
2023-03-30T18:08:17.851Z,2.70
2023-03-30T18:10:49.373Z,4.28
2023-03-30T18:13:16.473Z,6.88
2023-03-30T18:18:38.873Z,6.70
2023-03-30T18:21:06.784Z,7.15
2023-03-30T18:23:34.377Z,7.18
2023-03-30T18:26:02.297Z,5.93
2023-03-30T18:28:30.883Z,6.85
2023-03-30T18:30:58.494Z,6.72
2023-03-30T18:33:25.727Z,8.18
2023-03-30T18:35:53.382Z,5.88
2023-03-30T18:38:21.573Z,8.00
2023-03-30T18:40:50.531Z,3.78
2023-03-30T18:43:17.309Z,9.00
2023-03-30T18:45:49.457Z,9.18
2023-03-30T18:48:19.649Z,8.70
2023-03-30T18:50:47.823Z,9.50
2023-03-30T18:53:17.008Z,8.57
2023-03-30T18:55:45.958Z,8.20
2023-03-30T18:58:21.290Z,7.63
2023-03-30T19:00:49.002Z,8.27
2023-03-30T19:03:16.782Z,5.05
2023-03-30T19:05:44.829Z,4.22
2023-03-30T19:08:13.431Z,6.97
2023-03-30T19:10:41.472Z,9.32
2023-03-30T19:13:10.887Z,9.82
2023-03-30T19:15:37.638Z,6.90
2023-03-30T19:18:05.326Z,4.75
2023-03-30T19:20:34.331Z,6.00
2023-03-30T19:23:01.582Z,7.72
2023-03-30T19:25:28.862Z,8.20
2023-03-30T19:28:03.203Z,10.27
2023-03-30T19:33:00.965Z,7.93
2023-03-30T19:35:52.742Z,5.30
2023-03-30T19:38:19.691Z,12.65
2023-03-30T19:40:49.765Z,10.30
2023-03-30T19:43:16.496Z,5.05
2023-03-30T19:45:43.174Z,5.70
2023-03-30T19:48:10.658Z,6.32
2023-03-30T19:50:39.362Z,6.88
2023-03-30T19:53:06.100Z,6.43
2023-03-30T19:55:32.766Z,5.00
2023-03-30T19:57:59.420Z,7.18
2023-03-30T20:00:26.243Z,3.58
2023-03-30T20:02:54.358Z,7.43
2023-03-30T20:05:23.460Z,3.75
2023-03-30T20:07:50.864Z,6.20
2023-03-30T20:54:17.961Z,4.13
2023-03-30T20:56:44.828Z,5.13
2023-03-30T20:59:11.808Z,9.88
2023-03-30T21:01:43.336Z,7.75
2023-03-30T21:04:10.543Z,6.78
2023-03-30T21:06:37.314Z,7.70
2023-03-30T21:09:07.056Z,7.03
2023-03-30T21:11:38.617Z,6.68
2023-03-30T21:14:06.859Z,10.25
2023-03-30T21:16:36.758Z,6.32
2023-03-30T21:19:05.400Z,5.07
2023-03-30T21:21:34.830Z,3.85
2023-03-30T21:24:01.922Z,6.63
2023-03-30T21:26:31.437Z,7.63
2023-03-30T21:28:58.177Z,5.55
2023-03-30T21:31:25.069Z,9.75
2023-03-30T21:33:51.985Z,8.95
2023-03-30T21:36:18.934Z,6.20
2023-03-30T21:38:45.796Z,7.18
2023-03-30T21:41:17.680Z,6.60
2023-03-30T21:43:47.242Z,7.95
2023-03-30T21:46:19.700Z,10.43
2023-03-30T21:48:47.431Z,6.57
2023-03-30T21:51:16.955Z,4.40
2023-03-30T21:53:45.450Z,6.40
2023-03-30T21:56:12.534Z,8.95
2023-03-30T21:58:39.715Z,6.20
2023-03-30T22:01:12.376Z,10.18
2023-03-30T22:03:41.370Z,9.38
2023-03-30T22:06:09.919Z,7.15
2023-03-30T22:08:36.967Z,5.72
2023-03-30T22:11:06.845Z,4.88
2023-03-30T22:13:33.869Z,8.30
2023-03-30T22:16:03.781Z,7.38
2023-03-30T22:18:31.131Z,10.52
2023-03-30T22:21:03.378Z,9.02
2023-03-30T22:23:30.891Z,5.13
2023-03-30T22:25:58.322Z,5.65
2023-03-30T22:28:25.581Z,10.45
2023-03-30T22:30:52.616Z,7.90
2023-03-30T22:33:19.633Z,9.02
2023-03-30T22:35:48.292Z,7.18
2023-03-30T22:38:16.492Z,9.48
2023-03-30T22:40:43.710Z,20.23
2023-03-30T22:43:11.973Z,12.98
2023-03-30T22:45:39.915Z,7.40
2023-03-30T22:48:07.216Z,7.57
2023-03-30T22:50:35.312Z,8.98
2023-03-30T22:53:02.101Z,10.43
2023-03-30T22:55:28.916Z,7.97
2023-03-30T22:57:57.047Z,7.85
2023-03-30T23:00:24.658Z,10.15
2023-03-30T23:02:51.886Z,13.20
2023-03-30T23:05:21.353Z,4.18
2023-03-30T23:07:49.398Z,10.45
2023-03-30T23:10:20.075Z,8.52
2023-03-30T23:12:46.948Z,6.53
2023-03-30T23:15:14.536Z,14.10
2023-03-30T23:17:43.060Z,5.72
2023-03-30T23:20:11.538Z,9.80
2023-03-30T23:22:38.689Z,5.68
2023-03-30T23:25:06.363Z,10.57
2023-03-30T23:27:34.053Z,5.40
2023-03-30T23:30:01.086Z,8.85
2023-03-30T23:32:27.947Z,11.50
2023-03-30T23:34:54.764Z,7.90
2023-03-30T23:37:24.374Z,9.68
2023-03-30T23:39:51.152Z,10.05
2023-03-30T23:42:18.189Z,9.38
2023-03-30T23:44:45.322Z,7.45
2023-03-30T23:47:12.151Z,5.70
2023-03-30T23:49:38.939Z,5.43
2023-03-30T23:52:05.976Z,8.05
2023-03-30T23:54:37.351Z,11.40
2023-03-30T23:57:07.151Z,8.82
2023-03-30T23:59:35.249Z,6.43
